createdAt,value
2019-02-22T00:00:30.699Z,0.00
2019-02-22T00:01:30.757Z,0.00
2019-02-22T00:02:30.810Z,0.00
2019-02-22T00:03:30.866Z,0.00
2019-02-22T00:04:30.926Z,0.00
2019-02-22T00:05:30.974Z,0.00
2019-02-22T00:06:31.030Z,0.00
2019-02-22T00:07:31.085Z,0.00
2019-02-22T00:08:31.138Z,0.00
2019-02-22T00:09:31.195Z,0.00
2019-02-22T00:10:31.250Z,0.00
2019-02-22T00:11:31.305Z,0.00
2019-02-22T00:12:31.359Z,0.00
2019-02-22T00:13:31.414Z,0.00
2019-02-22T00:14:31.468Z,0.00
2019-02-22T00:15:31.524Z,0.00
2019-02-22T00:16:32.424Z,0.00
2019-02-22T00:17:31.635Z,0.00
2019-02-22T00:18:31.688Z,0.00
2019-02-22T00:19:31.747Z,0.00
2019-02-22T00:20:31.798Z,0.00
2019-02-22T00:21:31.853Z,0.00
2019-02-22T00:22:31.907Z,0.00
2019-02-22T00:23:31.963Z,0.00
2019-02-22T00:24:32.017Z,0.00
2019-02-22T00:25:32.074Z,0.00
2019-02-22T00:26:32.127Z,0.00
2019-02-22T00:27:32.182Z,0.00
2019-02-22T00:28:32.248Z,0.00
2019-02-22T00:29:32.292Z,0.00
2019-02-22T00:30:32.345Z,0.00
2019-02-22T00:31:32.400Z,0.00
2019-02-22T00:32:32.454Z,0.00
2019-02-22T00:33:32.512Z,0.00
2019-02-22T00:34:32.563Z,0.00
2019-02-22T00:35:32.766Z,0.00
2019-02-22T00:36:32.736Z,0.00
2019-02-22T00:37:32.773Z,0.00
2019-02-22T00:38:32.783Z,0.00
2019-02-22T00:39:32.838Z,0.00
2019-02-22T00:40:32.890Z,0.00
2019-02-22T00:41:32.946Z,0.00
2019-02-22T00:42:33.003Z,0.00
2019-02-22T00:43:33.057Z,0.00
2019-02-22T00:44:33.115Z,0.00
2019-02-22T00:45:33.166Z,0.00
2019-02-22T00:46:33.221Z,0.00
2019-02-22T00:47:33.275Z,0.00
2019-02-22T00:48:33.330Z,0.00
2019-02-22T00:49:33.383Z,0.00
2019-02-22T00:50:33.445Z,0.00
2019-02-22T00:51:33.496Z,0.00
2019-02-22T00:52:33.548Z,0.00
2019-02-22T00:53:33.603Z,0.00
2019-02-22T00:55:06.869Z,0.00
2019-02-22T00:55:33.712Z,0.00
2019-02-22T00:56:33.767Z,0.00
2019-02-22T00:57:33.822Z,0.00
2019-02-22T00:58:33.876Z,0.00
2019-02-22T00:59:33.932Z,0.00
2019-02-22T01:00:33.986Z,0.00
2019-02-22T01:01:34.041Z,0.00
2019-02-22T01:02:34.096Z,0.00
2019-02-22T01:03:34.153Z,0.00
2019-02-22T01:04:34.205Z,0.00
2019-02-22T01:05:34.259Z,0.00
2019-02-22T01:06:34.314Z,0.00
2019-02-22T01:07:34.370Z,0.00
2019-02-22T01:08:34.423Z,0.00
2019-02-22T01:09:34.479Z,0.00
2019-02-22T01:10:34.536Z,0.00
2019-02-22T01:11:34.589Z,0.00
2019-02-22T01:12:34.643Z,0.00
2019-02-22T01:13:34.698Z,0.00
2019-02-22T01:14:34.755Z,0.00
2019-02-22T01:15:34.807Z,0.00
2019-02-22T01:16:34.861Z,0.00
2019-02-22T01:17:34.919Z,0.00
2019-02-22T01:18:34.973Z,0.00
2019-02-22T01:19:35.029Z,0.00
2019-02-22T01:20:35.086Z,0.00
2019-02-22T01:21:35.139Z,0.00
2019-02-22T01:22:35.197Z,0.00
2019-02-22T01:23:35.246Z,0.00
2019-02-22T01:24:35.299Z,0.00
2019-02-22T01:25:35.356Z,0.00
2019-02-22T01:26:35.411Z,0.00
2019-02-22T01:27:35.716Z,0.00
2019-02-22T01:28:35.521Z,0.00
2019-02-22T01:29:35.574Z,0.00
2019-02-22T01:30:35.630Z,0.00
2019-02-22T01:31:35.684Z,0.00
2019-02-22T01:32:35.738Z,0.00
2019-02-22T01:33:35.794Z,0.00
2019-02-22T01:34:35.849Z,0.00
2019-02-22T01:35:35.904Z,0.00
2019-02-22T01:36:35.959Z,0.00
2019-02-22T01:37:36.018Z,0.00
2019-02-22T01:38:36.066Z,0.00
2019-02-22T01:39:36.123Z,0.00
2019-02-22T01:40:43.562Z,0.00
2019-02-22T01:41:36.232Z,0.00
2019-02-22T01:42:36.290Z,0.00
2019-02-22T01:43:36.342Z,0.00
2019-02-22T01:44:36.396Z,0.00
2019-02-22T01:45:36.450Z,0.00
2019-02-22T01:46:36.507Z,0.00
2019-02-22T01:47:36.562Z,0.00
2019-02-22T01:48:36.616Z,0.00
2019-02-22T01:49:36.672Z,0.00
2019-02-22T01:50:36.727Z,0.00
2019-02-22T01:51:36.781Z,0.00
2019-02-22T01:52:36.834Z,0.00
2019-02-22T01:53:36.892Z,0.00
2019-02-22T01:54:36.946Z,0.00
2019-02-22T01:55:37.000Z,0.00
2019-02-22T01:56:37.055Z,0.00
2019-02-22T01:57:37.110Z,0.00
2019-02-22T01:58:48.028Z,0.00
2019-02-22T01:59:37.219Z,0.00
2019-02-22T02:00:37.274Z,0.00
2019-02-22T02:01:37.329Z,0.00
2019-02-22T02:02:37.384Z,0.00
2019-02-22T02:03:37.440Z,0.00
2019-02-22T02:04:37.495Z,0.00
2019-02-22T02:05:37.555Z,0.00
2019-02-22T02:06:37.603Z,0.00
2019-02-22T02:07:37.660Z,0.00
2019-02-22T02:08:37.713Z,0.00
2019-02-22T02:09:37.769Z,0.00
2019-02-22T02:10:37.831Z,0.00
2019-02-22T02:11:37.879Z,0.00
2019-02-22T02:12:37.933Z,0.00
2019-02-22T02:13:38.299Z,0.00
2019-02-22T02:14:38.044Z,0.00
2019-02-22T02:15:38.102Z,0.00
2019-02-22T02:16:38.154Z,0.00
2019-02-22T02:17:38.209Z,0.00
2019-02-22T02:18:38.265Z,0.00
2019-02-22T02:19:38.319Z,0.00
2019-02-22T02:20:38.379Z,0.00
2019-02-22T02:21:38.428Z,0.00
2019-02-22T02:22:38.482Z,0.00
2019-02-22T02:23:38.851Z,0.00
2019-02-22T02:24:38.591Z,0.00
2019-02-22T02:25:38.647Z,0.00
2019-02-22T02:26:38.704Z,0.00
2019-02-22T02:27:38.756Z,0.00
2019-02-22T02:28:38.811Z,0.00
2019-02-22T02:29:38.865Z,0.00
2019-02-22T02:30:38.921Z,0.00
2019-02-22T02:31:38.974Z,0.00
2019-02-22T02:32:39.044Z,0.00
2019-02-22T02:33:39.085Z,0.00
2019-02-22T02:34:39.141Z,0.00
2019-02-22T02:35:39.199Z,0.00
2019-02-22T02:36:39.249Z,0.00
2019-02-22T02:37:39.304Z,0.00
2019-02-22T02:38:39.359Z,0.00
2019-02-22T02:39:39.417Z,0.00
2019-02-22T02:40:39.469Z,0.00
2019-02-22T02:41:39.523Z,0.00
2019-02-22T02:42:39.578Z,0.00
2019-02-22T02:43:39.632Z,0.00
2019-02-22T02:44:39.687Z,0.00
2019-02-22T02:45:39.744Z,0.00
2019-02-22T02:46:39.795Z,0.00
2019-02-22T02:47:39.851Z,0.00
2019-02-22T02:48:39.911Z,0.00
2019-02-22T02:49:39.962Z,0.00
2019-02-22T02:50:40.018Z,0.00
2019-02-22T02:51:40.069Z,0.00
2019-02-22T02:52:40.123Z,0.00
2019-02-22T02:53:40.180Z,0.00
2019-02-22T02:54:40.234Z,0.00
2019-02-22T02:55:40.289Z,0.00
2019-02-22T02:56:40.342Z,0.00
2019-02-22T02:57:40.400Z,0.00
2019-02-22T02:58:40.452Z,0.00
2019-02-22T02:59:40.509Z,0.00
2019-02-22T03:00:40.561Z,0.00
2019-02-22T03:01:40.617Z,0.00
2019-02-22T03:02:40.670Z,0.00
2019-02-22T03:03:40.726Z,0.00
2019-02-22T03:04:40.780Z,0.00
2019-02-22T03:05:40.837Z,0.00
2019-02-22T03:06:40.892Z,0.00
2019-02-22T03:07:40.944Z,0.00
2019-02-22T03:08:40.999Z,0.00
2019-02-22T03:09:41.054Z,0.00
2019-02-22T03:10:41.111Z,0.00
2019-02-22T03:11:41.163Z,0.00
2019-02-22T03:12:41.218Z,0.00
2019-02-22T03:13:41.274Z,0.00
2019-02-22T03:14:41.337Z,0.00
2019-02-22T03:15:41.382Z,0.00
2019-02-22T03:16:41.435Z,0.00
2019-02-22T03:17:41.492Z,0.00
2019-02-22T03:18:41.548Z,0.00
2019-02-22T03:19:41.602Z,0.00
2019-02-22T03:20:41.655Z,0.00
2019-02-22T03:21:41.713Z,0.00
2019-02-22T03:22:41.765Z,0.00
2019-02-22T03:23:41.824Z,0.00
2019-02-22T03:24:41.874Z,0.00
2019-02-22T03:25:41.930Z,0.00
2019-02-22T03:26:41.984Z,0.00
2019-02-22T03:27:42.039Z,0.00
2019-02-22T03:28:42.095Z,0.00
2019-02-22T03:29:42.148Z,0.00
2019-02-22T03:30:42.207Z,0.00
2019-02-22T03:31:42.478Z,0.00
2019-02-22T03:32:42.314Z,0.00
2019-02-22T03:33:42.369Z,0.00
2019-02-22T03:34:42.426Z,0.00
2019-02-22T03:35:42.479Z,0.00
2019-02-22T03:36:42.532Z,0.00
2019-02-22T03:37:42.587Z,0.00
2019-02-22T03:38:42.646Z,0.00
2019-02-22T03:39:42.697Z,0.00
2019-02-22T03:40:42.751Z,0.00
2019-02-22T03:41:42.806Z,0.00
2019-02-22T03:42:42.864Z,0.00
2019-02-22T03:43:42.915Z,0.00
2019-02-22T03:44:42.971Z,0.00
2019-02-22T03:45:43.080Z,0.00
2019-02-22T03:46:43.080Z,0.00
2019-02-22T03:47:43.134Z,0.00
2019-02-22T03:48:43.191Z,0.00
2019-02-22T03:49:43.246Z,0.00
2019-02-22T03:50:43.298Z,0.00
2019-02-22T03:51:43.355Z,0.00
2019-02-22T03:52:43.417Z,0.00
2019-02-22T03:53:43.463Z,0.00
2019-02-22T03:54:43.519Z,0.00
2019-02-22T03:55:43.599Z,0.00
2019-02-22T03:56:43.631Z,0.00
2019-02-22T03:57:43.683Z,0.00
2019-02-22T03:58:43.737Z,0.00
2019-02-22T03:59:43.793Z,0.00
2019-02-22T04:00:43.848Z,0.00
2019-02-22T04:01:43.903Z,0.00
2019-02-22T04:02:43.958Z,0.00
2019-02-22T04:03:44.012Z,0.00
2019-02-22T04:04:44.069Z,0.00
2019-02-22T04:05:44.130Z,0.00
2019-02-22T04:06:44.178Z,0.00
2019-02-22T04:07:44.240Z,0.00
2019-02-22T04:08:44.287Z,0.00
2019-02-22T04:09:44.341Z,0.00
2019-02-22T04:10:44.399Z,0.00
2019-02-22T04:11:46.058Z,0.00
2019-02-22T04:12:44.505Z,0.00
2019-02-22T04:13:44.563Z,0.00
2019-02-22T04:14:45.083Z,0.00
2019-02-22T04:15:44.673Z,0.00
2019-02-22T04:16:44.725Z,0.00
2019-02-22T04:17:44.817Z,0.00
2019-02-22T04:18:44.837Z,0.00
2019-02-22T04:19:44.891Z,0.00
2019-02-22T04:20:44.946Z,0.00
2019-02-22T04:21:45.000Z,0.00
2019-02-22T04:22:45.056Z,0.00
2019-02-22T04:23:45.110Z,0.00
2019-02-22T04:24:45.163Z,0.00
2019-02-22T04:25:45.219Z,0.00
2019-02-22T04:26:45.274Z,0.00
2019-02-22T04:27:45.343Z,0.00
2019-02-22T04:28:45.384Z,0.00
2019-02-22T04:29:45.437Z,0.00
2019-02-22T04:30:45.492Z,0.00
2019-02-22T04:31:45.548Z,0.00
2019-02-22T04:32:45.607Z,0.00
2019-02-22T04:33:45.658Z,0.00
2019-02-22T04:34:45.712Z,0.00
2019-02-22T04:35:45.769Z,0.00
2019-02-22T04:36:45.823Z,0.00
2019-02-22T04:37:45.877Z,0.00
2019-02-22T04:38:45.932Z,0.00
2019-02-22T04:39:45.985Z,0.00
2019-02-22T04:40:46.041Z,0.00
2019-02-22T04:41:57.346Z,0.00
2019-02-22T04:42:46.148Z,0.00
2019-02-22T04:43:46.204Z,0.00
2019-02-22T04:44:46.258Z,0.00
2019-02-22T04:45:46.314Z,0.00
2019-02-22T04:46:46.475Z,0.00
2019-02-22T04:47:46.423Z,0.00
2019-02-22T04:48:46.477Z,0.00
2019-02-22T04:49:46.530Z,0.00
2019-02-22T04:50:46.585Z,0.00
2019-02-22T04:51:46.642Z,0.00
2019-02-22T04:52:46.696Z,0.00
2019-02-22T04:53:46.750Z,0.00
2019-02-22T04:54:46.803Z,0.00
2019-02-22T04:55:46.860Z,0.00
2019-02-22T04:56:46.913Z,0.00
2019-02-22T04:57:46.967Z,0.00
2019-02-22T04:58:47.021Z,0.00
2019-02-22T04:59:47.076Z,0.00
2019-02-22T05:00:47.132Z,0.00
2019-02-22T05:01:47.195Z,0.00
2019-02-22T05:02:47.239Z,0.00
2019-02-22T05:03:47.293Z,0.00
2019-02-22T05:04:47.346Z,0.00
2019-02-22T05:05:47.403Z,0.00
2019-02-22T05:06:47.458Z,0.00
2019-02-22T05:07:47.511Z,0.00
2019-02-22T05:08:47.565Z,0.00
2019-02-22T05:09:47.622Z,0.00
2019-02-22T05:10:47.674Z,0.00
2019-02-22T05:11:47.731Z,0.00
2019-02-22T05:12:47.789Z,0.00
2019-02-22T05:13:47.837Z,0.00
2019-02-22T05:14:47.899Z,0.00
2019-02-22T05:15:47.950Z,0.00
2019-02-22T05:16:48.004Z,0.00
2019-02-22T05:17:48.065Z,0.00
2019-02-22T05:18:48.113Z,0.00
2019-02-22T05:19:48.171Z,0.00
2019-02-22T05:20:48.223Z,0.00
2019-02-22T05:21:48.275Z,0.00
2019-02-22T05:22:48.333Z,0.00
2019-02-22T05:23:48.384Z,0.00
2019-02-22T05:24:48.451Z,0.00
2019-02-22T05:25:48.495Z,0.00
2019-02-22T05:26:48.550Z,0.00
2019-02-22T05:27:48.608Z,0.00
2019-02-22T05:28:48.663Z,0.00
2019-02-22T05:29:48.711Z,0.00
2019-02-22T05:30:48.765Z,0.00
2019-02-22T05:31:48.822Z,0.00
2019-02-22T05:32:48.875Z,0.00
2019-02-22T05:33:48.930Z,0.00
2019-02-22T05:34:48.985Z,0.00
2019-02-22T05:35:49.040Z,0.00
2019-02-22T05:36:49.096Z,0.00
2019-02-22T05:37:49.151Z,0.00
2019-02-22T05:38:49.204Z,0.00
2019-02-22T05:39:49.260Z,0.00
2019-02-22T05:40:49.311Z,0.00
2019-02-22T05:41:49.366Z,0.00
2019-02-22T05:42:49.422Z,0.00
2019-02-22T05:43:49.478Z,0.00
2019-02-22T05:44:49.533Z,0.00
2019-02-22T05:45:49.586Z,0.00
2019-02-22T05:47:00.054Z,0.00
2019-02-22T05:47:49.707Z,0.00
2019-02-22T05:48:49.749Z,0.00
2019-02-22T05:49:49.804Z,0.00
2019-02-22T05:50:49.858Z,0.00
2019-02-22T05:51:49.914Z,0.00
2019-02-22T05:52:49.967Z,0.00
2019-02-22T05:53:50.022Z,0.00
2019-02-22T05:54:50.079Z,0.00
2019-02-22T05:55:50.134Z,0.00
2019-02-22T05:56:50.186Z,0.00
2019-02-22T05:57:50.241Z,0.00
2019-02-22T05:58:50.295Z,0.00
2019-02-22T05:59:50.351Z,0.00
2019-02-22T06:00:50.405Z,0.00
2019-02-22T06:01:50.459Z,0.00
2019-02-22T06:02:50.514Z,0.00
2019-02-22T06:03:50.569Z,0.00
2019-02-22T06:04:50.624Z,0.00
2019-02-22T06:05:50.680Z,0.00
2019-02-22T06:06:50.831Z,0.00
2019-02-22T06:07:50.789Z,0.00
2019-02-22T06:08:50.845Z,0.00
2019-02-22T06:09:50.899Z,0.00
2019-02-22T06:10:50.965Z,0.00
2019-02-22T06:11:51.014Z,0.00
2019-02-22T06:12:51.068Z,0.00
2019-02-22T06:13:51.124Z,0.00
2019-02-22T06:14:51.173Z,0.00
2019-02-22T06:15:51.227Z,0.00
2019-02-22T06:16:51.285Z,0.00
2019-02-22T06:17:51.339Z,0.00
2019-02-22T06:18:51.389Z,0.00
2019-02-22T06:19:51.448Z,0.00
2019-02-22T06:20:51.499Z,0.00
2019-02-22T06:21:51.560Z,0.00
2019-02-22T06:22:51.610Z,0.00
2019-02-22T06:23:51.673Z,0.00
2019-02-22T06:24:51.718Z,0.00
2019-02-22T06:25:51.774Z,5.63
2019-02-22T06:26:51.828Z,5.63
2019-02-22T06:27:51.884Z,5.63
2019-02-22T06:28:51.945Z,5.63
2019-02-22T06:29:51.996Z,5.63
2019-02-22T06:30:52.046Z,5.63
2019-02-22T06:31:52.102Z,5.63
2019-02-22T06:32:52.156Z,5.63
2019-02-22T06:33:52.214Z,5.63
2019-02-22T06:34:52.269Z,5.63
2019-02-22T06:35:52.321Z,5.63
2019-02-22T06:37:01.350Z,11.25
2019-02-22T06:37:52.430Z,11.25
2019-02-22T06:38:52.489Z,11.25
2019-02-22T06:39:52.545Z,11.25
2019-02-22T06:40:52.599Z,11.25
2019-02-22T06:41:52.648Z,11.25
2019-02-22T06:42:52.706Z,11.25
2019-02-22T06:43:52.761Z,11.25
2019-02-22T06:44:52.912Z,11.25
2019-02-22T06:45:52.869Z,11.25
2019-02-22T06:46:52.926Z,11.25
2019-02-22T06:47:52.980Z,16.88
2019-02-22T06:48:53.035Z,16.88
2019-02-22T06:49:53.089Z,16.88
2019-02-22T06:50:53.143Z,16.88
2019-02-22T06:51:53.203Z,16.88
2019-02-22T06:52:53.264Z,16.88
2019-02-22T06:53:53.309Z,16.88
2019-02-22T06:54:53.362Z,16.88
2019-02-22T06:55:53.418Z,16.88
2019-02-22T06:56:53.472Z,16.88
2019-02-22T06:57:53.540Z,16.88
2019-02-22T06:58:53.584Z,16.88
2019-02-22T06:59:53.639Z,16.88
2019-02-22T07:00:53.692Z,16.88
2019-02-22T07:01:53.747Z,16.88
2019-02-22T07:02:53.804Z,22.50
2019-02-22T07:03:54.486Z,16.88
2019-02-22T07:04:53.928Z,16.88
2019-02-22T07:05:53.966Z,22.50
2019-02-22T07:06:54.023Z,22.50
2019-02-22T07:07:56.736Z,22.50
2019-02-22T07:08:54.131Z,22.50
2019-02-22T07:09:54.187Z,22.50
2019-02-22T07:10:54.241Z,28.13
2019-02-22T07:11:54.958Z,28.13
2019-02-22T07:12:56.946Z,22.50
2019-02-22T07:13:54.404Z,22.50
2019-02-22T07:14:54.461Z,22.50
2019-02-22T07:15:55.077Z,22.50
2019-02-22T07:16:54.880Z,28.13
2019-02-22T07:17:54.625Z,28.13
2019-02-22T07:18:54.678Z,33.75
2019-02-22T07:19:54.733Z,33.75
2019-02-22T07:20:54.787Z,33.75
2019-02-22T07:21:54.843Z,28.13
2019-02-22T07:22:54.898Z,33.75
2019-02-22T07:23:54.953Z,39.38
2019-02-22T07:24:55.007Z,45.00
2019-02-22T07:25:55.063Z,50.63
2019-02-22T07:26:55.117Z,56.25
2019-02-22T07:27:55.170Z,56.25
2019-02-22T07:28:55.226Z,56.25
2019-02-22T07:29:55.281Z,50.63
2019-02-22T07:30:55.338Z,50.63
2019-02-22T07:32:05.362Z,50.63
2019-02-22T07:32:55.462Z,45.00
2019-02-22T07:33:55.827Z,39.38
2019-02-22T07:34:55.554Z,39.38
2019-02-22T07:35:55.612Z,45.00
2019-02-22T07:36:55.663Z,39.38
2019-02-22T07:37:55.718Z,28.13
2019-02-22T07:38:55.778Z,28.13
2019-02-22T07:39:55.827Z,39.38
2019-02-22T07:40:56.538Z,45.00
2019-02-22T07:41:55.937Z,45.00
2019-02-22T07:42:55.992Z,39.38
2019-02-22T07:43:56.047Z,39.38
2019-02-22T07:44:56.100Z,39.38
2019-02-22T07:45:56.155Z,39.38
2019-02-22T07:46:56.212Z,50.63
2019-02-22T07:47:56.267Z,56.25
2019-02-22T07:48:56.320Z,56.25
2019-02-22T07:49:56.374Z,61.88
2019-02-22T07:50:58.449Z,67.50
2019-02-22T07:51:56.484Z,73.13
2019-02-22T07:52:56.539Z,78.75
2019-02-22T07:53:56.594Z,78.75
2019-02-22T07:54:56.648Z,78.75
2019-02-22T07:55:56.705Z,84.38
2019-02-22T07:56:56.759Z,90.00
2019-02-22T07:57:56.827Z,84.38
2019-02-22T07:58:56.869Z,84.38
2019-02-22T07:59:56.925Z,101.25
2019-02-22T08:00:56.978Z,123.75
2019-02-22T08:01:57.033Z,140.63
2019-02-22T08:02:57.087Z,163.13
2019-02-22T08:03:57.143Z,191.25
2019-02-22T08:04:57.198Z,180.00
2019-02-22T08:05:57.253Z,146.25
2019-02-22T08:06:57.308Z,135.00
2019-02-22T08:07:57.365Z,163.13
2019-02-22T08:08:57.416Z,191.25
2019-02-22T08:09:57.471Z,202.50
2019-02-22T08:10:57.534Z,196.88
2019-02-22T08:11:57.582Z,174.38
2019-02-22T08:12:57.637Z,157.50
2019-02-22T08:13:57.691Z,174.38
2019-02-22T08:14:57.746Z,202.50
2019-02-22T08:15:57.802Z,225.00
2019-02-22T08:16:57.854Z,236.25
2019-02-22T08:17:57.911Z,236.25
2019-02-22T08:19:01.454Z,230.63
2019-02-22T08:19:58.021Z,225.00
2019-02-22T08:20:58.077Z,219.38
2019-02-22T08:22:00.195Z,230.63
2019-02-22T08:22:58.568Z,241.88
2019-02-22T08:23:58.241Z,230.63
2019-02-22T08:24:58.296Z,219.38
2019-02-22T08:25:58.353Z,213.75
2019-02-22T08:26:58.409Z,213.75
2019-02-22T08:27:58.463Z,219.38
2019-02-22T08:28:58.518Z,208.13
2019-02-22T08:29:58.573Z,191.25
2019-02-22T08:30:58.630Z,163.13
2019-02-22T08:31:58.686Z,146.25
2019-02-22T08:32:58.740Z,140.63
2019-02-22T08:33:58.802Z,135.00
2019-02-22T08:34:58.852Z,135.00
2019-02-22T08:35:58.909Z,135.00
2019-02-22T08:36:58.962Z,129.38
2019-02-22T08:37:59.017Z,129.38
2019-02-22T08:38:59.075Z,123.75
2019-02-22T08:40:02.064Z,123.75
2019-02-22T08:40:59.186Z,112.50
2019-02-22T08:41:59.241Z,95.63
2019-02-22T08:42:59.297Z,95.63
2019-02-22T08:43:59.352Z,101.25
2019-02-22T08:44:59.405Z,112.50
2019-02-22T08:45:59.461Z,118.13
2019-02-22T08:46:59.519Z,112.50
2019-02-22T08:47:59.574Z,95.63
2019-02-22T08:48:59.639Z,90.00
2019-02-22T08:49:59.685Z,95.63
2019-02-22T08:50:59.741Z,112.50
2019-02-22T08:51:59.797Z,123.75
2019-02-22T08:52:59.853Z,135.00
2019-02-22T08:53:59.908Z,157.50
2019-02-22T08:54:59.963Z,174.38
2019-02-22T08:56:00.018Z,174.38
2019-02-22T08:57:00.075Z,168.75
2019-02-22T08:58:00.129Z,163.13
2019-02-22T08:59:00.192Z,163.13
2019-02-22T09:00:00.303Z,168.75
2019-02-22T09:01:00.315Z,191.25
2019-02-22T09:02:00.357Z,202.50
2019-02-22T09:03:00.407Z,196.88
2019-02-22T09:04:00.466Z,202.50
2019-02-22T09:05:00.518Z,241.88
2019-02-22T09:06:00.574Z,270.00
2019-02-22T09:07:00.630Z,258.75
2019-02-22T09:08:00.686Z,270.00
2019-02-22T09:09:00.741Z,292.50
2019-02-22T09:10:00.797Z,281.25
2019-02-22T09:11:01.015Z,247.50
2019-02-22T09:12:00.910Z,230.63
2019-02-22T09:13:00.965Z,241.88
2019-02-22T09:14:01.019Z,270.00
2019-02-22T09:15:01.078Z,303.75
2019-02-22T09:16:01.134Z,320.63
2019-02-22T09:17:01.189Z,326.25
2019-02-22T09:18:01.258Z,326.25
2019-02-22T09:19:01.300Z,337.50
2019-02-22T09:20:01.358Z,360.00
2019-02-22T09:21:01.411Z,365.63
2019-02-22T09:22:01.467Z,376.88
2019-02-22T09:23:01.546Z,393.75
2019-02-22T09:24:01.583Z,382.50
2019-02-22T09:25:01.638Z,371.25
2019-02-22T09:26:01.714Z,360.00
2019-02-22T09:27:01.754Z,365.63
2019-02-22T09:28:01.803Z,388.13
2019-02-22T09:29:01.859Z,376.88
2019-02-22T09:30:01.915Z,331.88
2019-02-22T09:31:01.999Z,365.63
2019-02-22T09:32:02.095Z,354.38
2019-02-22T09:33:02.082Z,326.25
2019-02-22T09:34:02.148Z,331.88
2019-02-22T09:35:02.197Z,315.00
2019-02-22T09:36:02.252Z,365.63
2019-02-22T09:37:02.306Z,421.88
2019-02-22T09:38:02.364Z,444.38
2019-02-22T09:39:02.420Z,438.75
2019-02-22T09:40:02.496Z,433.13
2019-02-22T09:41:02.541Z,433.13
2019-02-22T09:42:02.901Z,433.13
2019-02-22T09:43:02.646Z,438.75
2019-02-22T09:44:02.702Z,450.00
2019-02-22T09:45:02.758Z,472.50
2019-02-22T09:46:02.817Z,489.38
2019-02-22T09:47:02.876Z,495.00
2019-02-22T09:48:02.929Z,466.88
2019-02-22T09:49:02.992Z,410.63
2019-02-22T09:50:03.042Z,388.13
2019-02-22T09:51:03.469Z,421.88
2019-02-22T09:52:03.186Z,410.63
2019-02-22T09:53:03.214Z,371.25
2019-02-22T09:54:03.269Z,343.13
2019-02-22T09:55:03.656Z,331.88
2019-02-22T09:56:03.384Z,337.50
2019-02-22T09:57:03.441Z,337.50
2019-02-22T09:58:03.502Z,331.88
2019-02-22T09:59:03.554Z,326.25
2019-02-22T10:00:04.086Z,320.63
2019-02-22T10:01:03.669Z,326.25
2019-02-22T10:02:03.726Z,337.50
2019-02-22T10:03:03.783Z,337.50
2019-02-22T10:04:03.839Z,331.88
2019-02-22T10:05:03.895Z,331.88
2019-02-22T10:06:03.952Z,337.50
2019-02-22T10:07:04.012Z,343.13
2019-02-22T10:08:04.068Z,354.38
2019-02-22T10:09:04.135Z,365.63
2019-02-22T10:10:04.187Z,371.25
2019-02-22T10:11:04.238Z,376.88
2019-02-22T10:12:04.295Z,371.25
2019-02-22T10:13:04.350Z,360.00
2019-02-22T10:14:06.878Z,365.63
2019-02-22T10:15:04.464Z,360.00
2019-02-22T10:16:04.522Z,354.38
2019-02-22T10:17:04.577Z,343.13
2019-02-22T10:18:04.635Z,343.13
2019-02-22T10:19:04.693Z,360.00
2019-02-22T10:20:04.764Z,382.50
2019-02-22T10:21:04.806Z,421.88
2019-02-22T10:22:04.862Z,461.25
2019-02-22T10:23:04.919Z,495.00
2019-02-22T10:24:04.977Z,506.25
2019-02-22T10:25:05.033Z,511.88
2019-02-22T10:26:05.104Z,528.75
2019-02-22T10:27:05.148Z,540.00
2019-02-22T10:28:05.210Z,556.88
2019-02-22T10:29:05.282Z,562.50
2019-02-22T10:30:05.343Z,562.50
2019-02-22T10:31:05.377Z,540.00
2019-02-22T10:32:05.433Z,534.38
2019-02-22T10:33:05.491Z,517.50
2019-02-22T10:34:05.551Z,523.13
2019-02-22T10:35:05.605Z,545.63
2019-02-22T10:36:05.663Z,562.50
2019-02-22T10:37:05.720Z,590.63
2019-02-22T10:38:05.780Z,607.50
2019-02-22T10:39:06.173Z,613.13
2019-02-22T10:40:05.896Z,613.13
2019-02-22T10:41:05.953Z,596.25
2019-02-22T10:42:06.011Z,579.38
2019-02-22T10:43:06.070Z,596.25
2019-02-22T10:44:15.029Z,596.25
2019-02-22T10:45:06.188Z,562.50
2019-02-22T10:46:06.245Z,551.25
2019-02-22T10:47:06.301Z,573.75
2019-02-22T10:48:06.361Z,601.88
2019-02-22T10:49:06.419Z,613.13
2019-02-22T10:50:06.477Z,601.88
2019-02-22T10:51:06.542Z,562.50
2019-02-22T10:52:06.598Z,517.50
2019-02-22T10:53:06.651Z,506.25
2019-02-22T10:54:06.709Z,534.38
2019-02-22T10:55:06.772Z,556.88
2019-02-22T10:56:06.840Z,545.63
2019-02-22T10:57:06.903Z,523.13
2019-02-22T10:58:06.947Z,495.00
2019-02-22T10:59:07.014Z,495.00
2019-02-22T11:00:07.061Z,506.25
2019-02-22T11:01:07.121Z,523.13
2019-02-22T11:02:07.178Z,517.50
2019-02-22T11:03:07.238Z,495.00
2019-02-22T11:04:07.295Z,466.88
2019-02-22T11:05:07.355Z,455.63
2019-02-22T11:06:07.413Z,438.75
2019-02-22T11:07:07.472Z,399.38
2019-02-22T11:08:07.555Z,354.38
2019-02-22T11:09:07.589Z,337.50
2019-02-22T11:10:08.370Z,331.88
2019-02-22T11:11:07.707Z,331.88
2019-02-22T11:12:07.771Z,348.75
2019-02-22T11:13:07.827Z,365.63
2019-02-22T11:14:07.883Z,376.88
2019-02-22T11:15:07.946Z,376.88
2019-02-22T11:16:08.004Z,360.00
2019-02-22T11:17:08.060Z,365.63
2019-02-22T11:18:08.151Z,382.50
2019-02-22T11:19:08.181Z,388.13
2019-02-22T11:20:08.235Z,376.88
2019-02-22T11:21:08.293Z,405.00
2019-02-22T11:22:08.350Z,421.88
2019-02-22T11:23:08.410Z,450.00
2019-02-22T11:24:08.471Z,438.75
2019-02-22T11:25:08.561Z,410.63
2019-02-22T11:26:08.585Z,376.88
2019-02-22T11:27:08.644Z,365.63
2019-02-22T11:28:08.701Z,388.13
2019-02-22T11:29:08.760Z,433.13
2019-02-22T11:30:08.818Z,472.50
2019-02-22T11:31:08.876Z,489.38
2019-02-22T11:32:08.936Z,461.25
2019-02-22T11:33:08.993Z,399.38
2019-02-22T11:34:09.054Z,365.63
2019-02-22T11:35:09.110Z,388.13
2019-02-22T11:36:09.170Z,433.13
2019-02-22T11:37:09.253Z,455.63
2019-02-22T11:38:09.288Z,450.00
2019-02-22T11:39:09.347Z,433.13
2019-02-22T11:40:09.404Z,416.25
2019-02-22T11:41:09.461Z,405.00
2019-02-22T11:42:09.519Z,410.63
2019-02-22T11:43:09.579Z,433.13
2019-02-22T11:44:09.637Z,517.50
2019-02-22T11:45:09.696Z,624.38
2019-02-22T11:46:09.755Z,697.50
2019-02-22T11:47:09.817Z,781.88
2019-02-22T11:48:09.878Z,815.63
2019-02-22T11:49:09.927Z,720.00
2019-02-22T11:50:09.987Z,669.38
2019-02-22T11:51:10.047Z,641.25
2019-02-22T11:52:10.106Z,624.38
2019-02-22T11:53:10.165Z,630.00
2019-02-22T11:54:10.221Z,641.25
2019-02-22T11:55:10.280Z,652.50
2019-02-22T11:56:10.340Z,652.50
2019-02-22T11:57:10.398Z,641.25
2019-02-22T11:58:10.477Z,624.38
2019-02-22T11:59:10.516Z,618.75
2019-02-22T12:00:10.584Z,624.38
2019-02-22T12:01:10.635Z,618.75
2019-02-22T12:02:10.693Z,613.13
2019-02-22T12:03:23.577Z,613.13
2019-02-22T12:04:10.849Z,601.88
2019-02-22T12:05:10.876Z,601.88
2019-02-22T12:06:10.934Z,596.25
2019-02-22T12:07:10.989Z,596.25
2019-02-22T12:08:11.049Z,618.75
2019-02-22T12:09:11.668Z,663.75
2019-02-22T12:10:11.171Z,675.00
2019-02-22T12:11:11.225Z,691.88
2019-02-22T12:12:11.343Z,675.00
2019-02-22T12:13:11.344Z,675.00
2019-02-22T12:14:11.408Z,776.25
2019-02-22T12:15:11.462Z,961.88
2019-02-22T12:16:11.523Z,939.38
2019-02-22T12:17:11.581Z,1051.88
2019-02-22T12:18:11.639Z,1035.00
2019-02-22T12:19:11.703Z,911.25
2019-02-22T12:20:11.761Z,1102.50
2019-02-22T12:21:11.820Z,945.00
2019-02-22T12:22:11.883Z,1428.75
2019-02-22T12:23:11.939Z,1096.88
2019-02-22T12:24:12.002Z,776.25
2019-02-22T12:25:12.060Z,742.50
2019-02-22T12:26:12.125Z,731.25
2019-02-22T12:27:14.077Z,776.25
2019-02-22T12:28:12.239Z,1113.75
2019-02-22T12:29:12.299Z,916.88
2019-02-22T12:30:12.370Z,641.25
2019-02-22T12:31:12.419Z,624.38
2019-02-22T12:32:12.485Z,568.13
2019-02-22T12:33:12.538Z,551.25
2019-02-22T12:34:12.600Z,573.75
2019-02-22T12:35:12.659Z,568.13
2019-02-22T12:36:12.728Z,545.63
2019-02-22T12:37:12.779Z,500.63
2019-02-22T12:38:12.840Z,495.00
2019-02-22T12:39:12.901Z,500.63
2019-02-22T12:40:12.961Z,489.38
2019-02-22T12:41:13.020Z,466.88
2019-02-22T12:42:13.079Z,444.38
2019-02-22T12:43:13.139Z,421.88
2019-02-22T12:44:13.200Z,399.38
2019-02-22T12:45:13.260Z,393.75
2019-02-22T12:46:13.319Z,399.38
2019-02-22T12:47:13.378Z,405.00
2019-02-22T12:48:13.437Z,421.88
2019-02-22T12:49:13.495Z,444.38
2019-02-22T12:50:13.556Z,495.00
2019-02-22T12:51:13.622Z,562.50
2019-02-22T12:52:13.693Z,675.00
2019-02-22T12:53:13.732Z,1355.63
2019-02-22T12:54:13.791Z,888.75
2019-02-22T12:55:13.852Z,810.00
2019-02-22T12:56:13.909Z,838.13